Главная страница
METAR-TAF:

METAR-TAF

Аэропорты :

Мендоса, Аргентина

широта: 32-50S, долгота: 068-47W, высота над уровнем моря: 705 м

Текущие метеонаблюдения

Эта сводка был подготовлена 58 минут назад, в 22:00 UTC
Ветер 3 Узел от южный-юго-западный
Температура 25°C
Влажность 61%
Давление 1004 hPa
Видимость 10 км и более
Нет облачности ниже 1500 м, и нет кучево-дождевой облачности

METAR: SAME 262200Z 20003KT CAVOK 25/17 Q1004

Время: 19:58 (22:58 UTC)

Прогноз

Эта сводка был подготовлена 5 часа и 58 минут назад, в 17:00 UTC
Прогноз действительный с 26-го 18 UTC до 27-го 18 UTC
Ветер 5 Узел от юго-восточный
Видимость 10 км и более
небольшая облачность на высоте 4000 фута
Отдельные облака на высоте 10000 фута
изменения
С 27-го 04 UTC до 27-го 06 UTC
Ветер 15 Узел от юго-восточный
Видимость 10 км и более
Отдельные облака на высоте 4000 фута
Отдельные облака на высоте 10000 фута

TAF: SAME 261700Z 2618/2718 14005KT 9999 FEW040 SCT100 TX29/2619Z TN17/2710Z BECMG 2704/2706 14015KT 9999 SCT040 SCT100

Метеонаблюдения и прогнозы для более 4000 аэропортов (сводки METAR и TAF).

Имеющиеся станции представлены на карте желтыми и красными точками.

Чтобы увидеть название станции, наведите на нее мышь.

Затем щелкните, чтобы увидеть метеонаблюдения и метеопрогнозы.

Управление картой: чтобы увеличить масштаб, щелкните зеленые кнопки с черным крестиком; чтобы уменьшить масштаб, щелкните зеленую кнопку с тире; для просмотра соседних карт щелкайте зеленые стрелки.


METAR-TAF: